createdAt,value
2023-03-26T00:07:18.977Z,97527.70
2023-03-26T00:17:26.260Z,97520.41
2023-03-26T00:27:34.045Z,97517.89
2023-03-26T00:37:43.359Z,97512.84
2023-03-26T00:47:51.907Z,97498.27
2023-03-26T00:57:59.197Z,97490.02
2023-03-26T01:08:17.457Z,97487.28
2023-03-26T01:18:26.569Z,97486.21
2023-03-26T01:28:36.003Z,97484.15
2023-03-26T01:38:40.317Z,97484.64
2023-03-26T01:48:49.602Z,97476.29
2023-03-26T01:58:58.727Z,97471.77
2023-03-26T02:09:06.338Z,97471.11
2023-03-26T02:19:16.189Z,97465.90
2023-03-26T02:29:23.248Z,97463.61
2023-03-26T02:39:30.736Z,97459.43
2023-03-26T02:49:36.781Z,97455.64
2023-03-26T02:59:46.549Z,97456.44
2023-03-26T03:09:53.475Z,97455.90
2023-03-26T03:20:00.619Z,97454.81
2023-03-26T03:30:10.941Z,97454.43
2023-03-26T03:40:18.290Z,97451.42
2023-03-26T03:50:25.476Z,97455.03
2023-03-26T04:00:32.485Z,97468.29
2023-03-26T04:10:39.478Z,97460.33
2023-03-26T04:20:48.243Z,97456.27
2023-03-26T04:30:57.361Z,97448.62
2023-03-26T04:41:07.821Z,97450.42
2023-03-26T04:51:16.849Z,97447.40
2023-03-26T05:01:23.617Z,97442.20
2023-03-26T05:11:30.973Z,97436.02
2023-03-26T05:21:38.008Z,97435.73
2023-03-26T05:31:45.564Z,97439.87
2023-03-26T05:41:51.936Z,97440.45
2023-03-26T05:51:58.920Z,97445.21
2023-03-26T06:02:06.593Z,97442.54
2023-03-26T06:12:13.908Z,97446.16
2023-03-26T06:32:25.762Z,97448.03
2023-03-26T06:43:09.055Z,97457.73
2023-03-26T06:53:00.121Z,97460.42
2023-03-26T07:03:04.921Z,97468.98
2023-03-26T07:13:12.400Z,97472.40
2023-03-26T07:23:20.261Z,97472.49
2023-03-26T07:33:25.951Z,97476.92
2023-03-26T07:43:35.167Z,97472.98
2023-03-26T07:53:40.353Z,97470.02
2023-03-26T08:03:52.138Z,97470.58
2023-03-26T08:13:59.718Z,97476.09
2023-03-26T08:24:05.012Z,97475.77
2023-03-26T08:34:11.204Z,97474.80
2023-03-26T08:44:52.833Z,97469.78
2023-03-26T08:55:24.096Z,97462.77
2023-03-26T09:05:46.393Z,97455.79
2023-03-26T09:16:11.675Z,97466.81
2023-03-26T09:26:22.712Z,97460.93
2023-03-26T09:36:56.811Z,97454.70
2023-03-26T09:47:19.238Z,97434.63
2023-03-26T09:57:29.563Z,97426.52
2023-03-26T10:07:57.505Z,97424.27
2023-03-26T10:18:27.044Z,97412.02
2023-03-26T10:28:40.426Z,97440.12
2023-03-26T10:39:38.092Z,97451.73
2023-03-26T10:49:54.206Z,97439.72
2023-03-26T10:59:59.272Z,97430.17
2023-03-26T11:10:12.623Z,97423.52
2023-03-26T11:20:17.613Z,97407.00
2023-03-26T11:30:25.025Z,97395.14
2023-03-26T11:40:36.226Z,97382.90
2023-03-26T11:50:41.409Z,97367.64
2023-03-26T12:00:48.995Z,97347.89
2023-03-26T12:10:59.717Z,97350.96
2023-03-26T12:21:08.725Z,97346.95
2023-03-26T12:31:16.906Z,97350.10
2023-03-26T12:43:01.478Z,97341.21
2023-03-26T12:51:58.752Z,97331.21
2023-03-26T13:02:05.294Z,97371.48
2023-03-26T13:12:11.742Z,97361.92
2023-03-26T13:22:19.494Z,97334.58
2023-03-26T13:32:26.326Z,97328.17
2023-03-26T13:42:40.761Z,97303.94
2023-03-26T13:52:55.418Z,97291.91
2023-03-26T14:03:11.958Z,97287.09
2023-03-26T14:13:22.967Z,97292.94
2023-03-26T14:23:35.275Z,97291.45
2023-03-26T14:33:48.797Z,97287.96
2023-03-26T14:44:48.396Z,97277.88
2023-03-26T15:07:30.056Z,97307.91
2023-03-26T15:17:44.091Z,97285.34
2023-03-26T15:27:57.229Z,97277.73
2023-03-26T15:38:13.898Z,97271.17
2023-03-26T15:48:47.513Z,97265.33
2023-03-26T15:58:54.001Z,97264.59
2023-03-26T16:09:05.088Z,97260.86
2023-03-26T16:19:50.360Z,97253.16
2023-03-26T16:30:30.618Z,97246.55
2023-03-26T16:40:51.038Z,97234.61
2023-03-26T16:50:57.049Z,97229.46
2023-03-26T17:01:17.478Z,97225.08
2023-03-26T17:11:22.973Z,97224.62
2023-03-26T17:21:45.790Z,97220.92
2023-03-26T17:31:53.167Z,97229.17
2023-03-26T17:42:13.213Z,97229.27
2023-03-26T17:52:19.511Z,97226.84
2023-03-26T18:02:34.576Z,97218.38
2023-03-26T18:13:04.378Z,97227.08
2023-03-26T18:23:14.313Z,97229.38
2023-03-26T18:33:21.346Z,97210.86
2023-03-26T18:43:34.752Z,97202.48
2023-03-26T18:53:44.700Z,97205.48
2023-03-26T19:03:49.978Z,97206.23
2023-03-26T19:14:07.508Z,97204.56
2023-03-26T19:24:14.994Z,97201.30
2023-03-26T19:34:25.093Z,97195.82
2023-03-26T19:44:33.342Z,97174.45
2023-03-26T19:55:00.108Z,97165.04
2023-03-26T20:05:08.046Z,97158.59
2023-03-26T20:15:19.620Z,97160.80
2023-03-26T20:25:31.555Z,97171.16
2023-03-26T20:35:37.293Z,97172.21
2023-03-26T20:45:45.388Z,97167.19
2023-03-26T20:55:52.029Z,97163.54
2023-03-26T21:06:01.138Z,97151.65
2023-03-26T21:16:11.176Z,97126.55
2023-03-26T21:26:27.812Z,97110.55
2023-03-26T21:36:36.910Z,97099.02
2023-03-26T21:46:43.086Z,97093.80
2023-03-26T21:56:52.193Z,97087.60
2023-03-26T22:07:05.949Z,97083.34
2023-03-26T22:17:12.911Z,97057.72
2023-03-26T22:27:20.437Z,97054.77
2023-03-26T22:37:27.536Z,97072.21
2023-03-26T22:47:35.521Z,97084.52
2023-03-26T22:57:43.247Z,97078.02
2023-03-26T23:07:50.145Z,97070.27
2023-03-26T23:17:58.861Z,97071.71
2023-03-26T23:28:06.022Z,97071.30
2023-03-26T23:38:12.790Z,97067.96
2023-03-26T23:48:21.337Z,97062.29
2023-03-26T23:58:29.848Z,97056.63
